createdAt,value
2022-12-08T00:01:38.942Z,-0.51
2022-12-08T00:04:01.853Z,-0.52
2022-12-08T00:07:00.908Z,-0.55
2022-12-08T00:09:38.228Z,-0.56
2022-12-08T00:12:16.678Z,-0.56
2022-12-08T00:14:44.610Z,-0.53
2022-12-08T00:17:08.399Z,-0.55
2022-12-08T00:19:31.247Z,-0.51
2022-12-08T00:22:39.486Z,-0.52
2022-12-08T00:27:55.547Z,-0.47
2022-12-08T00:30:21.659Z,-0.46
2022-12-08T00:32:44.094Z,-0.50
2022-12-08T00:35:11.267Z,-0.51
2022-12-08T00:37:35.876Z,-0.51
2022-12-08T00:39:59.276Z,-0.52
2022-12-08T00:42:22.571Z,-0.54
2022-12-08T00:44:45.052Z,-0.57
2022-12-08T00:47:09.192Z,-0.54
2022-12-08T00:49:32.804Z,-0.58
2022-12-08T00:52:00.742Z,-0.59
2022-12-08T00:54:23.861Z,-0.56
2022-12-08T00:56:48.576Z,-0.62
2022-12-08T00:59:12.768Z,-0.59
2022-12-08T01:01:39.779Z,-0.55
2022-12-08T01:04:12.175Z,-0.54
2022-12-08T01:06:38.920Z,-0.52
2022-12-08T01:09:03.660Z,-0.49
2022-12-08T01:11:30.153Z,-0.50
2022-12-08T01:13:53.011Z,-0.48
2022-12-08T01:16:28.236Z,-0.45
2022-12-08T01:18:50.786Z,-0.45
2022-12-08T01:21:13.285Z,-0.43
2022-12-08T01:23:39.863Z,-0.43
2022-12-08T01:26:04.412Z,-0.42
2022-12-08T01:28:26.956Z,-0.43
2022-12-08T01:30:50.224Z,-0.37
2022-12-08T01:33:12.585Z,-0.37
2022-12-08T01:35:35.609Z,-0.33
2022-12-08T01:37:58.258Z,-0.33
2022-12-08T01:40:20.586Z,-0.33
2022-12-08T01:42:43.038Z,-0.35
2022-12-08T01:45:12.114Z,-0.33
2022-12-08T01:47:42.403Z,-0.32
2022-12-08T01:50:06.926Z,-0.30
2022-12-08T01:52:42.000Z,-0.27
2022-12-08T01:55:18.213Z,-0.27
2022-12-08T01:57:52.199Z,-0.22
2022-12-08T02:00:17.172Z,-0.25
2022-12-08T02:02:59.199Z,-0.23
2022-12-08T02:05:23.688Z,-0.23
2022-12-08T02:07:48.136Z,-0.20
2022-12-08T02:10:12.153Z,-0.19
2022-12-08T02:12:34.584Z,-0.18
2022-12-08T02:15:00.551Z,-0.18
2022-12-08T02:17:50.358Z,-0.15
2022-12-08T02:23:23.865Z,-0.12
2022-12-08T02:27:00.728Z,-0.16
2022-12-08T02:29:59.551Z,-0.14
2022-12-08T02:32:41.650Z,-0.16
2022-12-08T02:35:52.118Z,-0.18
2022-12-08T02:39:16.461Z,-0.20
2022-12-08T02:42:20.287Z,-0.17
2022-12-08T02:45:06.641Z,-0.19
2022-12-08T02:47:28.987Z,-0.24
2022-12-08T02:49:51.411Z,-0.22
2022-12-08T02:52:13.681Z,-0.20
2022-12-08T02:54:36.034Z,-0.19
2022-12-08T02:57:27.033Z,-0.22
2022-12-08T03:00:07.868Z,-0.19
2022-12-08T03:02:57.849Z,-0.19
2022-12-08T03:05:30.457Z,-0.19
2022-12-08T03:08:19.061Z,-0.22
2022-12-08T03:10:56.476Z,-0.23
2022-12-08T03:13:30.915Z,-0.25
2022-12-08T03:15:53.272Z,-0.26
2022-12-08T03:18:16.618Z,-0.30
2022-12-08T03:20:39.005Z,-0.31
2022-12-08T03:23:02.325Z,-0.34
2022-12-08T03:25:28.811Z,-0.35
2022-12-08T03:27:51.165Z,-0.39
2022-12-08T03:30:13.507Z,-0.41
2022-12-08T03:33:14.860Z,-0.41
2022-12-08T03:35:37.386Z,-0.47
2022-12-08T03:38:05.529Z,-0.52
2022-12-08T03:40:27.808Z,-0.52
2022-12-08T03:42:53.658Z,-0.53
2022-12-08T03:45:16.222Z,-0.54
2022-12-08T03:47:39.305Z,-0.55
2022-12-08T03:50:02.177Z,-0.55
2022-12-08T03:52:25.121Z,-0.52
2022-12-08T03:57:53.890Z,-0.58
2022-12-08T04:03:08.991Z,-0.52
2022-12-08T04:05:31.400Z,-0.54
2022-12-08T04:07:57.938Z,-0.54
2022-12-08T04:10:20.349Z,-0.56
2022-12-08T04:12:42.638Z,-0.62
2022-12-08T04:15:05.697Z,-0.62
2022-12-08T04:17:28.099Z,-0.61
2022-12-08T04:19:52.928Z,-0.60
2022-12-08T04:22:16.810Z,-0.65
2022-12-08T04:24:40.979Z,-0.65
2022-12-08T04:27:03.429Z,-0.66
2022-12-08T04:29:25.739Z,-0.71
2022-12-08T04:31:49.612Z,-0.74
2022-12-08T04:34:12.013Z,-0.75
2022-12-08T04:36:34.504Z,-0.77
2022-12-08T04:38:56.941Z,-0.78
2022-12-08T04:41:19.283Z,-0.78
2022-12-08T04:43:48.642Z,-0.76
2022-12-08T04:46:12.395Z,-0.81
2022-12-08T04:48:36.587Z,-0.83
2022-12-08T04:51:02.330Z,-0.87
2022-12-08T04:53:26.762Z,-0.87
2022-12-08T04:55:53.715Z,-0.92
2022-12-08T04:58:18.118Z,-0.97
2022-12-08T05:00:46.329Z,-0.92
2022-12-08T05:03:12.742Z,-0.93
2022-12-08T05:05:56.717Z,-0.92
2022-12-08T05:08:26.050Z,-0.97
2022-12-08T05:11:09.635Z,-1.00
2022-12-08T05:13:36.559Z,-1.03
2022-12-08T05:16:10.476Z,-1.00
2022-12-08T05:18:33.930Z,-1.05
2022-12-08T05:21:06.611Z,-1.07
2022-12-08T05:23:29.949Z,-1.11
2022-12-08T05:26:02.419Z,-1.13
2022-12-08T05:28:44.217Z,-1.13
2022-12-08T05:31:09.303Z,-1.17
2022-12-08T05:33:36.129Z,-1.18
2022-12-08T05:35:59.624Z,-1.21
2022-12-08T05:38:22.052Z,-1.27
2022-12-08T05:40:45.709Z,-1.28
2022-12-08T05:43:08.622Z,-1.31
2022-12-08T05:45:35.242Z,-1.36
2022-12-08T05:48:00.881Z,-1.36
2022-12-08T05:50:23.204Z,-1.39
2022-12-08T05:52:50.132Z,-1.42
2022-12-08T05:55:12.669Z,-1.44
2022-12-08T05:57:36.444Z,-1.44
2022-12-08T06:00:00.023Z,-1.45
2022-12-08T06:02:22.886Z,-1.51
2022-12-08T06:04:46.773Z,-1.50
2022-12-08T06:07:14.570Z,-1.58
2022-12-08T06:09:44.694Z,-1.58
2022-12-08T06:12:07.168Z,-1.59
2022-12-08T06:14:44.900Z,-1.62
2022-12-08T06:17:07.478Z,-1.61
2022-12-08T06:19:30.208Z,-1.65
2022-12-08T06:21:53.024Z,-1.67
2022-12-08T06:24:15.662Z,-1.61
2022-12-08T06:26:41.458Z,-1.64
2022-12-08T06:29:05.915Z,-1.64
2022-12-08T06:31:28.749Z,-1.65
2022-12-08T06:33:51.185Z,-1.62
2022-12-08T06:36:15.243Z,-1.65
2022-12-08T06:38:42.930Z,-1.61
2022-12-08T06:41:06.889Z,-1.67
2022-12-08T06:43:30.694Z,-1.66
2022-12-08T06:45:53.241Z,-1.66
2022-12-08T06:48:19.640Z,-1.69
2022-12-08T06:50:42.316Z,-1.65
2022-12-08T06:53:05.812Z,-1.65
2022-12-08T06:55:59.093Z,-1.65
2022-12-08T06:58:13.215Z,-1.66
2022-12-08T07:00:35.548Z,-1.70
2022-12-08T07:02:57.894Z,-1.73
2022-12-08T07:05:20.495Z,-1.67
2022-12-08T07:07:42.835Z,-1.66
2022-12-08T07:10:06.466Z,-1.62
2022-12-08T07:12:29.113Z,-1.59
2022-12-08T07:18:00.615Z,-1.56
2022-12-08T07:20:23.153Z,-1.57
2022-12-08T07:22:55.389Z,-1.56
2022-12-08T07:25:18.805Z,-1.52
2022-12-08T07:27:48.166Z,-1.50
2022-12-08T07:30:10.982Z,-1.55
2022-12-08T07:35:23.102Z,-1.55
2022-12-08T07:37:46.615Z,-1.56
2022-12-08T07:40:15.258Z,-1.56
2022-12-08T07:42:37.891Z,-1.56
2022-12-08T07:45:01.774Z,-1.56
2022-12-08T07:47:24.500Z,-1.53
2022-12-08T07:49:47.765Z,-1.50
2022-12-08T07:52:10.328Z,-1.50
2022-12-08T07:54:34.253Z,-1.49
2022-12-08T07:56:58.232Z,-1.47
2022-12-08T07:59:20.723Z,-1.43
2022-12-08T08:01:45.510Z,-1.46
2022-12-08T08:04:08.053Z,-1.41
2022-12-08T08:06:31.974Z,-1.40
2022-12-08T08:08:54.659Z,-1.34
2022-12-08T08:11:21.301Z,-1.30
2022-12-08T08:13:44.044Z,-1.31
2022-12-08T08:16:08.569Z,-1.30
2022-12-08T08:18:30.912Z,-1.29
2022-12-08T08:20:53.243Z,-1.28
2022-12-08T08:23:15.545Z,-1.23
2022-12-08T08:25:37.894Z,-1.26
2022-12-08T08:28:00.205Z,-1.23
2022-12-08T08:30:23.989Z,-1.22
2022-12-08T08:32:46.285Z,-1.17
2022-12-08T08:35:09.235Z,-1.12
2022-12-08T08:37:31.811Z,-1.08
2022-12-08T08:39:54.214Z,-1.03
2022-12-08T08:42:16.587Z,-0.93
2022-12-08T08:44:39.189Z,-0.86
2022-12-08T08:47:01.551Z,-0.84
2022-12-08T08:49:23.958Z,-0.81
2022-12-08T08:51:46.521Z,-0.80
2022-12-08T08:54:08.867Z,-0.83
2022-12-08T08:56:31.343Z,-0.81
2022-12-08T08:58:54.029Z,-0.76
2022-12-08T09:01:22.157Z,-0.70
2022-12-08T09:03:45.073Z,-0.75
2022-12-08T09:06:07.481Z,-0.76
2022-12-08T09:08:29.983Z,-0.71
2022-12-08T09:10:52.373Z,-0.65
2022-12-08T09:13:14.721Z,-0.64
2022-12-08T09:15:37.301Z,-0.57
2022-12-08T09:17:59.746Z,-0.55
2022-12-08T09:20:22.073Z,-0.54
2022-12-08T09:22:44.441Z,-0.50
2022-12-08T09:25:07.053Z,-0.52
2022-12-08T09:27:29.361Z,-0.50
2022-12-08T09:29:51.700Z,-0.48
2022-12-08T09:32:14.075Z,-0.51
2022-12-08T09:34:36.452Z,-0.48
2022-12-08T09:36:58.771Z,-0.46
2022-12-08T09:39:21.099Z,-0.48
2022-12-08T09:41:48.508Z,-0.48
2022-12-08T09:44:59.796Z,-0.45
2022-12-08T09:47:35.479Z,-0.51
2022-12-08T09:50:14.853Z,-0.54
2022-12-08T09:52:45.290Z,-0.54
2022-12-08T09:55:40.778Z,-0.56
2022-12-08T09:58:03.488Z,-0.55
2022-12-08T10:00:25.876Z,-0.54
2022-12-08T10:02:48.307Z,-0.54
2022-12-08T10:05:13.762Z,-0.52
2022-12-08T10:08:06.518Z,-0.50
2022-12-08T10:10:38.959Z,-0.49
2022-12-08T10:13:08.745Z,-0.51
2022-12-08T10:15:34.875Z,-0.48
2022-12-08T10:17:57.894Z,-0.51
2022-12-08T10:20:26.081Z,-0.48
2022-12-08T10:23:02.705Z,-0.44
2022-12-08T10:25:46.726Z,-0.40
2022-12-08T10:37:12.816Z,-0.43
2022-12-08T10:39:43.948Z,-0.37
2022-12-08T10:42:17.477Z,-0.35
2022-12-08T10:44:51.781Z,-0.34
2022-12-08T10:47:14.235Z,-0.32
2022-12-08T10:49:38.717Z,-0.31
2022-12-08T10:52:01.009Z,-0.29
2022-12-08T10:54:33.459Z,-0.30
2022-12-08T10:56:56.906Z,-0.25
2022-12-08T10:59:19.678Z,-0.25
2022-12-08T11:01:46.817Z,-0.23
2022-12-08T11:04:17.636Z,-0.21
2022-12-08T11:06:40.200Z,-0.15
2022-12-08T11:09:17.745Z,-0.11
2022-12-08T11:11:52.154Z,-0.10
2022-12-08T11:14:32.266Z,-0.05
2022-12-08T11:17:02.485Z,-0.05
2022-12-08T11:19:27.867Z,-0.01
2022-12-08T11:21:50.176Z,-0.01
2022-12-08T11:24:15.388Z,0.03
2022-12-08T11:26:37.717Z,0.04
2022-12-08T11:29:00.057Z,0.02
2022-12-08T11:31:34.734Z,0.05
2022-12-08T11:33:57.237Z,0.07
2022-12-08T11:36:19.511Z,0.04
2022-12-08T11:38:44.571Z,0.08
2022-12-08T11:41:16.534Z,0.11
2022-12-08T11:44:22.497Z,0.14
2022-12-08T11:46:50.910Z,0.18
2022-12-08T11:49:14.247Z,0.15
2022-12-08T11:52:12.149Z,0.16
2022-12-08T11:54:51.219Z,0.22
2022-12-08T11:57:16.636Z,0.27
2022-12-08T11:59:46.240Z,0.29
2022-12-08T12:02:15.080Z,0.30
2022-12-08T12:05:08.137Z,0.37
2022-12-08T12:08:21.231Z,0.35
2022-12-08T12:11:42.754Z,0.39
2022-12-08T12:14:52.828Z,0.41
2022-12-08T12:18:01.619Z,0.42
2022-12-08T12:20:42.243Z,0.44
2022-12-08T12:23:41.658Z,0.47
2022-12-08T12:26:09.947Z,0.50
2022-12-08T12:29:02.633Z,0.52
2022-12-08T12:31:48.856Z,0.57
2022-12-08T12:34:19.440Z,0.58
2022-12-08T12:37:04.250Z,0.60
2022-12-08T12:39:29.683Z,0.62
2022-12-08T12:41:58.213Z,0.67
2022-12-08T12:44:29.160Z,0.72
2022-12-08T12:46:51.550Z,0.72
2022-12-08T12:49:43.868Z,0.76
2022-12-08T12:52:24.076Z,0.76
2022-12-08T12:55:09.003Z,0.78
2022-12-08T12:57:37.672Z,0.81
2022-12-08T12:59:59.859Z,0.80
2022-12-08T13:02:27.952Z,0.83
2022-12-08T13:05:22.654Z,0.84
2022-12-08T13:07:56.341Z,0.87
2022-12-08T13:10:26.145Z,0.87
2022-12-08T13:13:10.715Z,0.90
2022-12-08T13:15:41.695Z,0.89
2022-12-08T13:18:04.596Z,0.91
2022-12-08T13:20:26.902Z,0.92
2022-12-08T13:23:02.413Z,0.91
2022-12-08T13:25:40.037Z,0.96
2022-12-08T13:28:14.027Z,0.93
2022-12-08T13:30:46.335Z,0.96
2022-12-08T13:33:39.878Z,0.97
2022-12-08T13:36:14.844Z,0.98
2022-12-08T13:38:37.766Z,0.99
2022-12-08T13:41:01.758Z,1.00
2022-12-08T13:43:45.079Z,1.05
2022-12-08T13:46:57.913Z,1.03
2022-12-08T13:50:30.728Z,1.03
2022-12-08T13:53:35.059Z,1.07
2022-12-08T13:55:26.863Z,1.07
2022-12-08T13:57:33.774Z,1.12
2022-12-08T14:00:21.348Z,1.12
2022-12-08T14:02:48.862Z,1.14
2022-12-08T14:05:20.333Z,1.15
2022-12-08T14:07:47.460Z,1.16
2022-12-08T14:10:16.587Z,1.17
2022-12-08T14:12:38.923Z,1.19
2022-12-08T14:15:04.770Z,1.14
2022-12-08T14:17:27.415Z,1.13
2022-12-08T14:20:02.344Z,1.12
2022-12-08T14:22:25.048Z,1.11
2022-12-08T14:24:52.194Z,1.10
2022-12-08T14:27:17.729Z,1.08
2022-12-08T14:29:51.154Z,1.03
2022-12-08T14:32:26.821Z,1.04
2022-12-08T14:34:58.449Z,1.00
2022-12-08T14:37:20.780Z,0.99
2022-12-08T14:39:43.121Z,0.98
2022-12-08T14:42:05.828Z,0.96
2022-12-08T14:44:31.409Z,0.91
2022-12-08T14:47:08.348Z,0.91
2022-12-08T14:49:35.875Z,0.89
2022-12-08T14:51:58.208Z,0.86
2022-12-08T14:54:20.552Z,0.88
2022-12-08T14:56:53.239Z,0.86
2022-12-08T14:59:35.564Z,0.86
2022-12-08T15:02:26.524Z,0.91
2022-12-08T15:04:54.860Z,0.91
2022-12-08T15:07:22.858Z,0.92
2022-12-08T15:09:50.856Z,0.94
2022-12-08T15:12:13.067Z,0.92
2022-12-08T15:14:37.565Z,0.94
2022-12-08T15:17:00.035Z,0.98
2022-12-08T15:19:33.419Z,1.00
2022-12-08T15:22:12.142Z,1.00
2022-12-08T15:24:35.671Z,1.03
2022-12-08T15:26:58.032Z,1.04
2022-12-08T15:29:23.881Z,1.04
2022-12-08T15:31:46.288Z,1.06
2022-12-08T15:34:08.688Z,1.05
2022-12-08T15:36:30.980Z,1.05
2022-12-08T15:38:53.300Z,1.06
2022-12-08T15:41:15.618Z,1.06
2022-12-08T15:43:37.956Z,1.08
2022-12-08T15:46:00.667Z,1.06
2022-12-08T15:48:26.955Z,1.05
2022-12-08T15:50:49.554Z,1.09
2022-12-08T15:53:11.951Z,1.09
2022-12-08T15:55:38.834Z,1.10
2022-12-08T15:58:51.829Z,1.10
2022-12-08T16:00:52.306Z,1.10
2022-12-08T16:04:19.827Z,1.12
2022-12-08T16:09:11.737Z,1.13
2022-12-08T16:12:10.398Z,1.14
2022-12-08T16:15:46.721Z,1.14
2022-12-08T16:17:16.694Z,1.13
2022-12-08T16:19:39.028Z,1.13
2022-12-08T16:24:43.796Z,1.13
2022-12-08T16:29:48.419Z,1.11
2022-12-08T16:32:10.877Z,1.10
2022-12-08T16:34:33.322Z,1.08
2022-12-08T16:36:55.702Z,1.10
2022-12-08T16:39:18.071Z,1.08
2022-12-08T16:41:59.389Z,1.11
2022-12-08T16:44:21.719Z,1.10
2022-12-08T16:46:44.084Z,1.08
2022-12-08T16:49:08.237Z,1.10
2022-12-08T16:51:30.568Z,1.10
2022-12-08T16:53:52.947Z,1.10
2022-12-08T16:56:20.057Z,1.09
2022-12-08T16:58:42.403Z,1.13
2022-12-08T17:01:04.760Z,1.14
2022-12-08T17:03:27.262Z,1.11
2022-12-08T17:05:49.565Z,1.15
2022-12-08T17:08:13.283Z,1.15
2022-12-08T17:10:39.394Z,1.15
2022-12-08T17:13:02.337Z,1.19
2022-12-08T17:15:25.715Z,1.18
2022-12-08T17:17:48.265Z,1.20
2022-12-08T17:20:40.443Z,1.22
2022-12-08T17:23:02.742Z,1.23
2022-12-08T17:25:26.526Z,1.24
2022-12-08T17:27:48.825Z,1.25
2022-12-08T17:30:15.051Z,1.27
2022-12-08T17:32:38.478Z,1.27
2022-12-08T17:35:00.809Z,1.28
2022-12-08T17:37:23.147Z,1.29
2022-12-08T17:39:45.659Z,1.28
2022-12-08T17:42:08.120Z,1.27
2022-12-08T17:44:31.000Z,1.27
2022-12-08T17:46:53.543Z,1.24
2022-12-08T17:49:23.994Z,1.25
2022-12-08T17:51:50.713Z,1.27
2022-12-08T17:54:13.054Z,1.26
2022-12-08T17:56:35.359Z,1.27
2022-12-08T17:58:57.722Z,1.28
2022-12-08T18:01:20.090Z,1.24
2022-12-08T18:03:42.452Z,1.30
2022-12-08T18:06:09.742Z,1.29
2022-12-08T18:08:32.110Z,1.30
2022-12-08T18:10:54.465Z,1.31
2022-12-08T18:13:16.812Z,1.32
2022-12-08T18:15:39.530Z,1.29
2022-12-08T18:18:01.890Z,1.31
2022-12-08T18:20:24.272Z,1.35
2022-12-08T18:22:46.582Z,1.34
2022-12-08T18:25:10.036Z,1.37
2022-12-08T18:27:32.752Z,1.39
2022-12-08T18:29:55.146Z,1.42
2022-12-08T18:32:17.500Z,1.41
2022-12-08T18:34:39.850Z,1.44
2022-12-08T18:37:03.599Z,1.45
2022-12-08T18:39:28.862Z,1.48
2022-12-08T18:41:52.190Z,1.45
2022-12-08T18:44:14.496Z,1.46
2022-12-08T18:46:36.897Z,1.48
2022-12-08T18:48:59.547Z,1.47
2022-12-08T18:51:23.611Z,1.49
2022-12-08T18:53:46.184Z,1.47
2022-12-08T18:56:08.725Z,1.50
2022-12-08T18:58:31.063Z,1.51
2022-12-08T19:00:53.367Z,1.50
2022-12-08T19:03:15.729Z,1.51
2022-12-08T19:05:38.385Z,1.54
2022-12-08T19:08:00.765Z,1.53
2022-12-08T19:10:23.114Z,1.54
2022-12-08T19:12:45.554Z,1.53
2022-12-08T19:15:09.070Z,1.50
2022-12-08T19:17:31.678Z,1.50
2022-12-08T19:19:54.025Z,1.47
2022-12-08T19:22:16.363Z,1.48
2022-12-08T19:24:38.787Z,1.50
2022-12-08T19:27:01.516Z,1.49
2022-12-08T19:29:23.869Z,1.51
2022-12-08T19:31:46.328Z,1.52
2022-12-08T19:34:09.863Z,1.50
2022-12-08T19:36:35.642Z,1.48
2022-12-08T19:39:17.280Z,1.47
2022-12-08T19:41:58.378Z,1.50
2022-12-08T19:44:46.408Z,1.48
2022-12-08T19:47:09.181Z,1.45
2022-12-08T19:49:31.833Z,1.44
2022-12-08T19:51:54.182Z,1.47
2022-12-08T19:54:16.472Z,1.40
2022-12-08T19:56:38.866Z,1.42
2022-12-08T19:59:01.198Z,1.38
2022-12-08T20:01:23.550Z,1.38
2022-12-08T20:03:45.960Z,1.37
2022-12-08T20:06:15.787Z,1.33
2022-12-08T20:08:38.191Z,1.33
2022-12-08T20:11:00.578Z,1.32
2022-12-08T20:13:40.913Z,1.28
2022-12-08T20:16:03.341Z,1.18
2022-12-08T20:18:25.877Z,1.16
2022-12-08T20:20:48.718Z,1.18
2022-12-08T20:23:11.136Z,1.17
2022-12-08T20:25:33.776Z,1.11
2022-12-08T20:27:56.250Z,1.05
2022-12-08T20:30:18.577Z,1.01
2022-12-08T20:32:40.893Z,0.96
2022-12-08T20:35:03.664Z,0.92
2022-12-08T20:37:26.277Z,0.81
2022-12-08T20:39:48.857Z,0.89
2022-12-08T20:42:14.387Z,0.76
2022-12-08T20:44:36.851Z,0.77
2022-12-08T20:46:59.201Z,0.77
2022-12-08T20:49:21.786Z,0.70
2022-12-08T20:51:44.582Z,0.69
2022-12-08T20:54:07.028Z,0.71
2022-12-08T20:56:31.342Z,0.72
2022-12-08T20:58:54.093Z,0.67
2022-12-08T21:01:19.136Z,0.68
2022-12-08T21:03:42.068Z,0.65
2022-12-08T21:06:05.057Z,0.69
2022-12-08T21:08:27.699Z,0.64
2022-12-08T21:10:57.357Z,0.63
2022-12-08T21:13:19.802Z,0.62
2022-12-08T21:15:46.560Z,0.59
2022-12-08T21:18:09.312Z,0.54
2022-12-08T21:20:31.824Z,0.57
2022-12-08T21:22:54.261Z,0.51
2022-12-08T21:25:16.865Z,0.53
2022-12-08T21:27:39.443Z,0.49
2022-12-08T21:30:01.861Z,0.48
2022-12-08T21:32:29.929Z,0.51
2022-12-08T21:34:53.023Z,0.53
2022-12-08T21:37:15.829Z,0.52
2022-12-08T21:39:38.852Z,0.50
2022-12-08T21:42:22.705Z,0.51
2022-12-08T21:44:45.606Z,0.50
2022-12-08T21:47:08.044Z,0.45
2022-12-08T21:49:30.576Z,0.44
2022-12-08T21:51:52.899Z,0.48
2022-12-08T21:54:18.968Z,0.46
2022-12-08T21:56:41.711Z,0.43
2022-12-08T21:59:04.194Z,0.45
2022-12-08T22:01:26.676Z,0.40
2022-12-08T22:03:49.300Z,0.45
2022-12-08T22:06:13.181Z,0.53
2022-12-08T22:08:35.922Z,0.53
2022-12-08T22:10:38.395Z,0.59
2022-12-08T22:12:40.870Z,0.59
2022-12-08T22:14:43.797Z,0.53
2022-12-08T22:16:46.005Z,0.53
2022-12-08T22:18:48.173Z,0.57
2022-12-08T22:20:50.352Z,0.60
2022-12-08T22:22:52.697Z,0.57
2022-12-08T22:24:54.798Z,0.55
2022-12-08T22:26:56.898Z,0.53
2022-12-08T22:28:59.190Z,0.52
2022-12-08T22:31:01.327Z,0.54
2022-12-08T22:33:03.616Z,0.57
2022-12-08T22:35:06.152Z,0.58
2022-12-08T22:37:08.211Z,0.57
2022-12-08T22:39:10.475Z,0.58
2022-12-08T22:41:12.938Z,0.64
2022-12-08T22:43:15.326Z,0.57
2022-12-08T22:45:17.539Z,0.61
2022-12-08T22:47:38.352Z,0.60
2022-12-08T22:49:59.060Z,0.59
2022-12-08T22:52:21.428Z,0.59
2022-12-08T22:54:43.845Z,0.63
2022-12-08T22:57:06.197Z,0.66
2022-12-08T22:59:29.664Z,0.70
2022-12-08T23:01:53.978Z,0.71
2022-12-08T23:04:18.348Z,0.69
2022-12-08T23:06:40.974Z,0.75
2022-12-08T23:09:03.395Z,0.74
2022-12-08T23:11:28.720Z,0.72
2022-12-08T23:13:51.588Z,0.64
2022-12-08T23:16:14.397Z,0.65
2022-12-08T23:18:37.176Z,0.59
2022-12-08T23:21:06.986Z,0.65
2022-12-08T23:23:29.309Z,0.64
2022-12-08T23:25:51.630Z,0.61
2022-12-08T23:28:17.158Z,0.62
2022-12-08T23:30:42.693Z,0.64
2022-12-08T23:33:05.160Z,0.64
2022-12-08T23:35:27.874Z,0.60
2022-12-08T23:37:50.382Z,0.66
2022-12-08T23:40:12.979Z,0.67
2022-12-08T23:42:35.401Z,0.65
2022-12-08T23:44:58.040Z,0.67
2022-12-08T23:47:20.839Z,0.72
2022-12-08T23:49:43.324Z,0.68
2022-12-08T23:52:05.924Z,0.68
2022-12-08T23:54:28.327Z,0.70
2022-12-08T23:56:50.652Z,0.66
2022-12-08T23:59:13.016Z,0.66
